Time;durP1;ratioP1;P1;durP2;ratioP2;P2;SDS_P1;SDS_P2;PMS_P1;PMS_P2;Temp;Humidity;BMP_temperature;BMP_pressure;BME280_temperature;BME280_humidity;BME280_pressure;Samples;Min_cycle;Max_cycle;Signal;HPM_P1;HPM_P2
2022/04/25 00:01:04;;;;;;;47.05;30.50;;;;;;;12.05;71.48;98091.56;5176645;28;20466;-83
2022/04/25 00:03:55;;;;;;;53.95;32.58;;;;;;;12.00;70.89;98076.16;5175704;28;20056;-84
2022/04/25 00:06:44;;;;;;;52.97;33.58;;;;;;;11.40;74.25;98080.25;5189500;28;20055;-83
2022/04/25 00:09:35;;;;;;;46.17;30.50;;;;;;;11.74;72.67;98103.00;5192549;28;20136;-83
2022/04/25 00:12:25;;;;;;;53.90;34.75;;;;;;;11.26;73.39;98073.81;5193148;28;20539;-83
2022/04/25 00:15:16;;;;;;;54.38;34.67;;;;;;;11.37;73.78;98085.06;5168178;28;20119;-84
2022/04/25 00:18:07;;;;;;;56.83;36.10;;;;;;;11.92;72.09;98097.44;5154032;28;20057;-83
2022/04/25 00:20:57;;;;;;;54.03;36.22;;;;;;;11.99;71.50;98101.09;5153696;28;20061;-83
2022/04/25 00:23:47;;;;;;;57.33;37.63;;;;;;;11.84;72.00;98108.09;5153181;28;20560;-83
2022/04/25 00:26:37;;;;;;;64.93;38.65;;;;;;;11.63;72.23;98090.94;5168417;28;20060;-83
2022/04/25 00:29:28;;;;;;;59.70;37.03;;;;;;;11.68;72.26;98083.25;5153584;28;20058;-83
2022/04/25 00:32:18;;;;;;;61.08;39.47;;;;;;;11.48;72.33;98084.69;5139659;28;20112;-84
2022/04/25 00:35:09;;;;;;;63.88;38.28;;;;;;;11.61;73.85;98108.84;5192007;28;20703;-81
2022/04/25 00:37:59;;;;;;;63.60;39.70;;;;;;;11.34;72.59;98094.19;5192636;28;20061;-82
2022/04/25 00:40:49;;;;;;;59.10;37.70;;;;;;;11.15;74.13;98095.38;5193701;28;20053;-81
2022/04/25 00:43:40;;;;;;;58.35;37.40;;;;;;;11.33;72.90;98078.44;5171733;28;20053;-82
2022/04/25 00:46:30;;;;;;;63.20;39.10;;;;;;;11.44;72.79;98092.16;5187404;28;20104;-82
2022/04/25 00:49:22;;;;;;;63.63;37.63;;;;;;;11.54;71.74;98094.63;5173422;28;20108;-82
2022/04/25 00:52:12;;;;;;;57.95;37.80;;;;;;;11.55;71.69;98106.88;5172343;28;20073;-82
2022/04/25 00:55:07;;;;;;;60.20;38.72;;;;;;;11.55;71.54;98096.25;5191795;28;20103;-81
2022/04/25 00:57:58;;;;;;;58.92;37.08;;;;;;;11.83;71.22;98117.91;5208789;28;20518;-82
2022/04/25 01:00:48;;;;;;;58.65;38.75;;;;;;;11.57;70.97;98102.25;5193167;28;20052;-81
2022/04/25 01:03:39;;;;;;;59.30;38.50;;;;;;;11.68;71.51;98103.69;5200833;28;20053;-82
2022/04/25 01:06:29;;;;;;;57.20;37.60;;;;;;;11.69;71.48;98111.50;5187585;28;20555;-81
2022/04/25 01:09:20;;;;;;;58.97;37.13;;;;;;;11.51;71.71;98103.75;5173113;28;20136;-82
2022/04/25 01:12:10;;;;;;;61.67;36.65;;;;;;;11.56;71.85;98118.34;5172738;28;20065;-81
2022/04/25 01:15:07;;;;;;;60.90;37.53;;;;;;;11.60;72.22;98114.34;5179169;28;20056;-82
2022/04/25 01:17:57;;;;;;;56.88;37.13;;;;;;;11.66;71.96;98119.81;5192523;28;20079;-81
2022/04/25 01:20:54;;;;;;;60.03;37.90;;;;;;;11.67;71.52;98107.34;5206220;28;20048;-82
2022/04/25 01:30:03;;;;;;;60.63;39.00;;;;;;;11.40;72.66;98095.34;5208202;28;20132;-82
2022/04/25 01:32:54;;;;;;;58.15;37.90;;;;;;;11.52;72.88;98129.31;5208090;28;20509;-81
2022/04/25 01:35:44;;;;;;;58.95;37.97;;;;;;;11.29;72.15;98093.84;5179351;28;20425;-84
2022/04/25 01:38:34;;;;;;;62.03;39.88;;;;;;;11.74;70.77;98117.09;5172134;28;20637;-84
2022/04/25 01:41:24;;;;;;;63.72;39.15;;;;;;;11.84;69.92;98110.75;5172127;28;20123;-83
2022/04/25 01:44:14;;;;;;;60.47;39.78;;;;;;;11.72;70.99;98111.16;5158499;28;20061;-82
2022/04/25 01:47:06;;;;;;;60.45;38.47;;;;;;;11.96;70.40;98134.13;5153566;28;20119;-81
2022/04/25 01:49:56;;;;;;;60.30;39.40;;;;;;;11.70;70.42;98122.94;5153080;28;20050;-81
2022/04/25 01:52:47;;;;;;;61.40;39.47;;;;;;;11.27;72.14;98119.75;5152874;28;20741;-82
2022/04/25 01:55:38;;;;;;;64.20;41.03;;;;;;;11.69;71.27;98132.75;5154306;28;20060;-81
2022/04/25 01:58:28;;;;;;;67.03;41.55;;;;;;;11.86;69.96;98119.41;5154266;28;20065;-82
2022/04/25 02:01:18;;;;;;;62.55;39.95;;;;;;;11.67;70.06;98126.75;5140965;28;20046;-81
2022/04/25 02:04:09;;;;;;;62.95;40.67;;;;;;;11.03;73.17;98115.34;5153829;28;20046;-81
2022/04/25 02:06:59;;;;;;;61.63;39.58;;;;;;;11.44;72.38;98131.16;5164839;28;20112;-82
2022/04/25 02:09:56;;;;;;;58.17;38.83;;;;;;;11.49;71.29;98121.69;5183958;28;20145;-81
2022/04/25 02:12:46;;;;;;;60.95;40.10;;;;;;;11.52;71.78;98126.66;5174397;28;20045;-82
2022/04/25 02:15:36;;;;;;;61.22;39.90;;;;;;;11.49;71.16;98120.88;5187945;28;20049;-82
2022/04/25 02:18:27;;;;;;;66.75;41.97;;;;;;;11.38;70.81;98121.22;5185532;28;20103;-82
2022/04/25 02:21:17;;;;;;;64.32;41.97;;;;;;;11.41;71.54;98126.19;5207972;28;20699;-82
2022/04/25 02:24:08;;;;;;;62.92;40.42;;;;;;;11.34;72.11;98131.34;5191653;28;20518;-81
2022/04/25 02:26:58;;;;;;;60.95;39.58;;;;;;;11.44;71.10;98124.00;5192054;28;20067;-81
2022/04/25 02:29:49;;;;;;;63.08;41.60;;;;;;;11.36;71.30;98125.88;5178214;28;20057;-82
2022/04/25 02:32:39;;;;;;;64.22;41.67;;;;;;;11.01;73.06;98133.22;5190809;28;20076;-82
2022/04/25 02:35:29;;;;;;;69.55;43.25;;;;;;;11.40;71.94;98140.47;5191657;28;20051;-82
2022/04/25 02:38:20;;;;;;;64.82;42.70;;;;;;;10.89;72.71;98138.03;5193155;28;20486;-81
2022/04/25 02:41:10;;;;;;;68.72;43.28;;;;;;;10.58;73.84;98130.75;5207602;28;20056;-82
2022/04/25 02:44:00;;;;;;;64.35;42.13;;;;;;;10.81;72.66;98128.25;5192793;28;20081;-82
2022/04/25 02:46:50;;;;;;;68.50;43.15;;;;;;;11.34;72.21;98152.56;5178907;28;20077;-82
2022/04/25 02:49:41;;;;;;;64.30;40.88;;;;;;;11.34;71.30;98165.03;5193675;28;20499;-82
2022/04/25 02:52:31;;;;;;;62.42;40.63;;;;;;;11.07;70.91;98118.47;5179265;23;20053;-82
2022/04/25 02:55:22;;;;;;;70.03;42.70;;;;;;;11.47;70.61;98154.72;5167511;28;20052;-83
2022/04/25 02:58:12;;;;;;;68.15;43.25;;;;;;;11.56;70.50;98158.19;5168577;28;20064;-82
2022/04/25 03:01:05;;;;;;;65.78;41.78;;;;;;;11.45;71.13;98159.34;5183030;28;20139;-83
2022/04/25 03:03:55;;;;;;;62.85;40.05;;;;;;;11.38;70.20;98163.69;5168201;28;20049;-83
2022/04/25 03:06:45;;;;;;;63.58;39.60;;;;;;;11.35;70.47;98150.75;5153322;28;20161;-82
2022/04/25 03:09:36;;;;;;;62.33;41.47;;;;;;;11.25;71.35;98153.59;5187544;28;20054;-82
2022/04/25 03:12:26;;;;;;;64.82;40.25;;;;;;;11.23;70.84;98144.97;5187210;28;20044;-82
2022/04/25 03:15:16;;;;;;;62.42;40.63;;;;;;;10.79;72.54;98140.88;5180736;28;20045;-82
2022/04/25 03:18:08;;;;;;;65.15;41.53;;;;;;;11.35;71.52;98159.53;5168053;28;20054;-82
2022/04/25 03:20:59;;;;;;;60.90;39.10;;;;;;;11.39;71.55;98179.44;5166686;28;20046;-82
2022/04/25 03:23:49;;;;;;;65.43;41.50;;;;;;;11.31;70.90;98165.34;5166829;28;20053;-83
2022/04/25 03:26:39;;;;;;;62.88;40.08;;;;;;;11.30;72.05;98183.09;5167524;28;20053;-82
2022/04/25 03:29:29;;;;;;;65.00;40.28;;;;;;;11.40;72.02;98178.44;5153915;28;20195;-82
2022/04/25 03:32:19;;;;;;;61.42;39.13;;;;;;;11.35;71.64;98172.81;5166746;28;20057;-85
2022/04/25 03:35:09;;;;;;;59.83;39.15;;;;;;;11.38;72.01;98196.34;5171533;28;20057;-82
2022/04/25 03:37:59;;;;;;;62.80;40.08;;;;;;;11.34;71.36;98180.94;5161813;28;20061;-82
2022/04/25 03:40:49;;;;;;;63.97;41.60;;;;;;;11.14;71.30;98197.22;5146414;28;20102;-82
2022/04/25 03:43:39;;;;;;;61.80;38.63;;;;;;;11.35;71.30;98203.81;5150701;28;20516;-82
2022/04/25 03:46:30;;;;;;;56.40;37.50;;;;;;;11.20;70.56;98185.94;5183851;28;20416;-82
2022/04/25 03:49:21;;;;;;;58.47;38.28;;;;;;;11.24;71.29;98203.19;5171700;28;20053;-82
2022/04/25 03:52:11;;;;;;;61.13;39.25;;;;;;;11.03;72.62;98203.69;5185032;28;20069;-82
2022/04/25 03:58:17;;;;;;;62.63;39.65;;;;;;;11.12;71.61;98171.84;5171473;28;20057;-82
2022/04/25 04:01:08;;;;;;;68.63;39.33;;;;;;;11.32;71.40;98194.38;5170558;28;20060;-83
2022/04/25 04:04:04;;;;;;;62.00;39.20;;;;;;;11.20;71.59;98204.50;5170842;28;20042;-82
2022/04/25 04:06:54;;;;;;;62.70;40.08;;;;;;;11.22;71.44;98206.97;5165533;28;20583;-82
2022/04/25 04:09:45;;;;;;;64.47;39.92;;;;;;;11.24;70.62;98197.03;5165660;28;20528;-82
2022/04/25 04:12:35;;;;;;;62.22;40.22;;;;;;;11.29;71.09;98226.53;5164637;28;20140;-82
2022/04/25 04:15:25;;;;;;;61.75;40.15;;;;;;;10.95;71.78;98229.38;5165439;28;20428;-83
2022/04/25 04:18:16;;;;;;;60.75;40.72;;;;;;;10.95;71.38;98214.28;5150798;28;20077;-83
2022/04/25 04:21:06;;;;;;;64.72;40.58;;;;;;;10.88;71.46;98217.78;5165297;28;20057;-82
2022/04/25 04:23:59;;;;;;;65.40;40.10;;;;;;;11.04;71.78;98229.22;5165187;28;20564;-82
2022/04/25 04:26:49;;;;;;;66.18;42.00;;;;;;;10.89;71.53;98211.47;5170470;28;20061;-82
2022/04/25 04:29:40;;;;;;;64.22;40.53;;;;;;;11.03;71.95;98246.13;5171924;28;20256;-82
2022/04/25 04:32:30;;;;;;;63.97;41.38;;;;;;;11.22;70.89;98252.09;5173546;28;20088;-82
2022/04/25 04:38:29;;;;;;;62.55;40.50;;;;;;;11.00;70.18;98217.28;5171011;28;20618;-82
2022/04/25 04:41:19;;;;;;;70.75;43.38;;;;;;;11.14;70.62;98262.72;5184514;28;20054;-82
2022/04/25 04:44:09;;;;;;;66.50;42.67;;;;;;;11.24;70.67;98240.31;5176839;28;20054;-82
2022/04/25 04:46:59;;;;;;;71.60;43.55;;;;;;;11.31;70.44;98250.28;5164869;28;20054;-82
2022/04/25 04:49:49;;;;;;;67.95;43.13;;;;;;;11.22;70.17;98237.00;5150820;28;20098;-82
2022/04/25 04:52:39;;;;;;;64.93;42.17;;;;;;;11.37;69.89;98263.72;5164214;28;20500;-82
2022/04/25 04:55:31;;;;;;;67.80;44.72;;;;;;;11.33;69.82;98261.56;5167403;28;20433;-82
2022/04/25 04:58:21;;;;;;;66.32;41.78;;;;;;;11.49;69.76;98270.34;5185785;28;20421;-82
2022/04/25 05:01:12;;;;;;;66.68;43.05;;;;;;;11.17;70.89;98259.75;5169398;28;20061;-82
2022/04/25 05:04:02;;;;;;;67.05;43.70;;;;;;;11.45;70.26;98284.09;5156715;28;20069;-82
2022/04/25 05:06:52;;;;;;;67.25;43.97;;;;;;;11.33;69.38;98249.13;5179633;28;20057;-82
2022/04/25 05:09:42;;;;;;;70.28;43.03;;;;;;;11.54;69.34;98275.16;5173755;28;20609;-82
2022/04/25 05:12:56;;;;;;;69.45;44.75;;;;;;;11.72;66.96;98278.47;5174794;28;20120;-82
2022/04/25 05:15:46;;;;;;;66.47;43.08;;;;;;;11.50;68.59;98282.63;5180819;28;20187;-82
2022/04/25 05:18:36;;;;;;;73.22;43.42;;;;;;;11.59;68.68;98266.66;5185923;28;20077;-82
2022/04/25 05:21:26;;;;;;;68.75;44.17;;;;;;;11.77;67.95;98296.53;5185051;28;20352;-82
2022/04/25 05:24:16;;;;;;;67.82;44.20;;;;;;;11.86;68.05;98278.78;5184410;28;20052;-82
2022/04/25 05:27:06;;;;;;;66.60;43.70;;;;;;;11.85;68.00;98293.06;5154167;28;20047;-83
2022/04/25 05:29:56;;;;;;;64.88;43.30;;;;;;;11.67;69.12;98298.53;5151726;28;20070;-89
2022/04/25 05:32:55;;;;;;;64.53;42.28;;;;;;;11.55;69.49;98284.75;5138214;28;20069;-85
2022/04/25 05:35:46;;;;;;;64.65;42.60;;;;;;;11.80;68.97;98308.66;5183185;28;20048;-86
2022/04/25 05:38:37;;;;;;;66.72;44.20;;;;;;;11.90;68.23;98293.38;5171000;28;20065;-86
2022/04/25 05:41:27;;;;;;;66.50;42.92;;;;;;;11.72;67.64;98283.78;5170240;28;20499;-85
2022/04/25 05:44:17;;;;;;;65.18;41.38;;;;;;;11.63;68.84;98300.69;5170222;28;20061;-85
2022/04/25 05:47:08;;;;;;;66.43;42.17;;;;;;;11.63;67.96;98313.16;5150487;28;20168;-86
2022/04/25 05:53:11;;;;;;;64.85;42.83;;;;;;;11.63;69.24;98302.53;5150318;28;20466;-86
2022/04/25 05:56:00;;;;;;;65.03;42.50;;;;;;;11.90;68.92;98296.03;5156998;28;20061;-86
2022/04/25 05:58:50;;;;;;;66.50;42.92;;;;;;;12.26;67.37;98327.53;5169710;28;20125;-86
2022/04/25 06:01:40;;;;;;;66.20;43.25;;;;;;;12.52;66.62;98333.41;5174917;28;20050;-84
2022/04/25 06:04:31;;;;;;;61.17;40.80;;;;;;;12.06;67.60;98325.25;5176364;28;20046;-85
2022/04/25 06:07:22;;;;;;;57.88;39.20;;;;;;;12.12;66.62;98321.06;5186196;28;20034;-85
2022/04/25 06:10:14;;;;;;;64.63;41.85;;;;;;;12.12;66.65;98313.09;5172147;28;20098;-85
2022/04/25 06:13:07;;;;;;;59.10;39.97;;;;;;;12.46;66.56;98318.13;5185995;28;20038;-85
2022/04/25 06:15:57;;;;;;;57.80;39.25;;;;;;;12.45;66.43;98311.19;5179225;28;20056;-86
2022/04/25 06:18:47;;;;;;;59.67;39.63;;;;;;;12.63;65.46;98325.03;5174709;28;20057;-86
2022/04/25 06:21:37;;;;;;;60.10;40.22;;;;;;;12.38;66.25;98312.84;5168762;28;20073;-86
2022/04/25 06:24:28;;;;;;;61.55;39.90;;;;;;;12.57;64.89;98333.69;5157255;28;20057;-93
2022/04/25 06:27:26;;;;;;;58.05;38.75;;;;;;;12.77;66.47;98344.75;5336796;27;20143;-70
2022/04/25 06:30:16;;;;;;;64.00;41.25;;;;;;;13.09;66.22;98338.44;5302590;27;20077;-70
2022/04/25 06:33:06;;;;;;;55.90;38.08;;;;;;;12.79;64.66;98347.25;5300125;27;20184;-70
2022/04/25 06:35:56;;;;;;;52.15;36.53;;;;;;;12.99;63.22;98332.50;5279242;28;20122;-69
2022/04/25 06:38:46;;;;;;;52.72;35.90;;;;;;;13.60;61.49;98357.41;5280655;28;20058;-70
2022/04/25 06:41:36;;;;;;;53.22;38.25;;;;;;;13.36;62.80;98354.94;5282105;28;20054;-69
2022/04/25 06:44:27;;;;;;;54.15;36.83;;;;;;;13.25;63.49;98358.84;5278760;28;20497;-69
2022/04/25 06:47:17;;;;;;;51.78;35.50;;;;;;;13.53;63.49;98355.63;5281553;28;20052;-69
2022/04/25 06:50:08;;;;;;;50.22;35.28;;;;;;;13.68;62.41;98356.53;5283171;28;20051;-68
2022/04/25 06:52:59;;;;;;;55.88;36.65;;;;;;;13.89;60.92;98350.50;5281634;28;20119;-69
2022/04/25 06:55:49;;;;;;;49.22;34.90;;;;;;;13.98;60.34;98354.75;5281935;28;20051;-69
2022/04/25 06:58:39;;;;;;;47.97;34.13;;;;;;;13.78;60.76;98358.94;5282633;28;20062;-69
2022/04/25 07:01:29;;;;;;;54.55;36.30;;;;;;;13.80;61.39;98346.25;5281439;28;20058;-69
2022/04/25 07:04:21;;;;;;;49.95;34.67;;;;;;;13.41;62.04;98363.22;5281688;28;20058;-69
2022/04/25 07:07:11;;;;;;;53.20;36.55;;;;;;;13.13;63.27;98360.19;5281952;28;20048;-68
2022/04/25 07:10:02;;;;;;;50.30;35.28;;;;;;;13.60;61.85;98364.56;5282346;28;20059;-68
2022/04/25 07:12:54;;;;;;;54.28;36.25;;;;;;;14.13;61.44;98367.28;5282038;28;20055;-68
2022/04/25 07:15:44;;;;;;;52.42;35.40;;;;;;;13.95;61.38;98363.13;5278625;28;20055;-68
2022/04/25 07:18:35;;;;;;;48.95;34.30;;;;;;;14.52;58.69;98359.06;5278749;28;20055;-68
2022/04/25 07:30:52;;;;;;;48.42;32.55;;;;;;;15.18;58.00;98362.53;5281835;28;20051;-67
2022/04/25 07:33:45;;;;;;;48.67;33.97;;;;;;;15.06;58.87;98361.38;5281344;28;20409;-67
2022/04/25 07:36:38;;;;;;;45.97;32.42;;;;;;;15.10;56.40;98356.47;5280136;28;20071;-67
2022/04/25 07:39:29;;;;;;;46.05;32.22;;;;;;;13.73;60.30;98364.78;5267579;28;20052;-67
2022/04/25 07:42:19;;;;;;;43.65;31.25;;;;;;;14.24;59.49;98361.50;5267531;28;20114;-68
2022/04/25 07:45:09;;;;;;;36.85;27.85;;;;;;;16.08;53.04;98358.47;5267194;28;20062;-68
2022/04/25 07:48:00;;;;;;;39.20;28.67;;;;;;;15.65;55.68;98355.81;5267704;28;20059;-68
2022/04/25 07:50:50;;;;;;;42.85;30.48;;;;;;;17.20;53.25;98360.09;5266334;28;20052;-68
2022/04/25 07:53:41;;;;;;;36.75;27.08;;;;;;;17.81;53.02;98362.72;5267726;28;20418;-68
2022/04/25 07:56:33;;;;;;;32.38;24.10;;;;;;;18.28;49.22;98360.84;5267356;28;20044;-68
2022/04/25 07:59:23;;;;;;;31.20;23.33;;;;;;;18.49;47.84;98362.44;5266789;28;20502;-68
2022/04/25 08:02:13;;;;;;;30.92;22.15;;;;;;;19.25;47.11;98367.16;5267186;28;20181;-68
2022/04/25 08:05:04;;;;;;;27.48;22.15;;;;;;;18.48;47.77;98362.66;5267594;28;20059;-68
2022/04/25 08:07:55;;;;;;;31.25;24.52;;;;;;;18.77;48.78;98364.88;5267221;28;20077;-68
2022/04/25 08:10:45;;;;;;;29.50;22.33;;;;;;;17.45;49.44;98359.53;5266841;28;20114;-67
2022/04/25 08:17:59;;;;;;;31.02;24.13;;;;;;;16.70;51.29;98378.19;5266658;28;20642;-68
2022/04/25 08:20:00;;;;;;;30.50;24.02;;;;;;;16.81;52.49;98374.16;5266506;28;20078;-68
2022/04/25 08:22:50;;;;;;;33.90;25.67;;;;;;;17.16;53.41;98382.16;5265321;28;20135;-68
2022/04/25 08:25:41;;;;;;;28.83;23.17;;;;;;;17.32;50.38;98381.78;5266448;28;20435;-68
2022/04/25 08:28:31;;;;;;;30.00;23.00;;;;;;;17.17;51.52;98389.16;5265616;28;20055;-68
2022/04/25 08:31:41;;;;;;;33.08;24.20;;;;;;;16.80;50.96;98386.72;5245217;28;20052;-68
2022/04/25 08:34:32;;;;;;;32.10;24.55;;;;;;;16.95;50.77;98380.41;5245310;28;20095;-68
2022/04/25 08:37:22;;;;;;;26.52;21.40;;;;;;;17.92;47.87;98388.09;5245724;28;20055;-68
2022/04/25 08:40:13;;;;;;;28.55;21.48;;;;;;;18.08;49.28;98386.88;5245406;28;20064;-68
2022/04/25 08:43:06;;;;;;;27.27;22.33;;;;;;;17.65;49.32;98389.06;5245340;28;20063;-68
2022/04/25 08:45:58;;;;;;;26.60;21.13;;;;;;;17.87;48.27;98395.91;5245489;28;20434;-68
2022/04/25 08:48:49;;;;;;;27.08;19.40;;;;;;;18.89;46.08;98380.34;5244729;28;20056;-68
2022/04/25 08:51:43;;;;;;;24.13;18.77;;;;;;;19.53;45.01;98384.75;5245317;28;20329;-68
2022/04/25 08:54:35;;;;;;;22.27;17.70;;;;;;;18.97;45.02;98377.41;5229928;28;20064;-68
2022/04/25 08:57:28;;;;;;;21.92;16.48;;;;;;;19.66;44.51;98384.72;5244707;28;20071;-68
2022/04/25 09:00:18;;;;;;;18.83;15.97;;;;;;;19.41;41.95;98398.09;5266114;28;20494;-68
2022/04/25 09:03:09;;;;;;;22.42;15.93;;;;;;;19.69;43.54;98400.41;5265670;28;20063;-68
2022/04/25 09:06:00;;;;;;;22.58;16.55;;;;;;;19.64;43.36;98396.75;5265844;28;20105;-68
2022/04/25 09:08:51;;;;;;;21.10;16.63;;;;;;;20.60;41.33;98393.69;5266182;28;20059;-69
2022/04/25 09:14:50;;;;;;;18.85;15.48;;;;;;;20.62;43.15;98393.47;5265422;28;20145;-69
2022/04/25 09:18:00;;;;;;;21.48;15.50;;;;;;;20.99;41.11;98402.41;5265808;28;20069;-69
2022/04/25 09:20:53;;;;;;;18.67;14.73;;;;;;;20.52;42.11;98398.53;5244781;28;20414;-68
2022/04/25 09:23:43;;;;;;;16.58;14.52;;;;;;;19.41;42.76;98410.72;5244301;28;20102;-68
2022/04/25 09:26:33;;;;;;;18.65;15.85;;;;;;;19.95;44.20;98412.03;5244110;28;20514;-68
2022/04/25 09:29:25;;;;;;;21.35;15.48;;;;;;;20.09;43.21;98410.88;5244744;28;20137;-68
2022/04/25 09:32:17;;;;;;;17.00;13.95;;;;;;;19.90;43.14;98409.16;5244125;28;20113;-68
2022/04/25 09:35:28;;;;;;;15.77;13.80;;;;;;;19.54;44.04;98413.31;5262090;28;20063;-68
2022/04/25 09:38:32;;;;;;;16.05;13.93;;;;;;;18.68;43.41;98406.41;5265307;28;20050;-67
2022/04/25 09:41:34;;;;;;;15.25;13.55;;;;;;;18.65;45.81;98417.56;5265065;28;20058;-67
2022/04/25 09:44:24;;;;;;;15.32;13.10;;;;;;;18.12;46.16;98408.75;5265038;28;20062;-68
2022/04/25 09:47:25;;;;;;;18.77;14.07;;;;;;;18.04;45.81;98407.06;5263808;28;20051;-68
2022/04/25 09:50:15;;;;;;;19.10;13.57;;;;;;;18.57;43.81;98417.75;5265210;28;20205;-67
2022/04/25 09:53:44;;;;;;;21.58;14.02;;;;;;;18.11;44.34;98417.78;5264759;28;20052;-68
2022/04/25 09:56:34;;;;;;;16.95;13.68;;;;;;;17.99;44.35;98417.59;5264653;28;20461;-68
2022/04/25 09:59:25;;;;;;;17.35;13.73;;;;;;;17.31;47.77;98414.94;5264866;28;20052;-68
2022/04/25 10:02:20;;;;;;;17.25;13.85;;;;;;;18.04;46.05;98413.25;5264303;28;20059;-68
2022/04/25 10:05:13;;;;;;;17.17;13.63;;;;;;;17.68;45.39;98412.78;5264769;28;20048;-67
2022/04/25 10:08:08;;;;;;;17.85;13.82;;;;;;;17.97;47.44;98416.97;5264694;28;20100;-69
2022/04/25 10:11:02;;;;;;;16.80;13.60;;;;;;;17.92;46.65;98422.16;5264561;28;20055;-68
2022/04/25 10:13:53;;;;;;;16.45;13.90;;;;;;;18.05;47.50;98417.59;5263360;28;20047;-67
2022/04/25 10:16:44;;;;;;;17.98;15.20;;;;;;;18.46;45.73;98419.22;5264158;28;20185;-68
2022/04/25 10:19:41;;;;;;;17.48;14.25;;;;;;;18.13;45.97;98421.13;5264842;28;20300;-68
2022/04/25 10:22:34;;;;;;;16.80;14.98;;;;;;;17.67;45.75;98409.28;5264465;28;20419;-67
2022/04/25 10:25:26;;;;;;;18.42;15.65;;;;;;;17.91;48.11;98423.97;5264436;28;20058;-67
2022/04/25 10:28:26;;;;;;;19.23;16.05;;;;;;;17.78;47.17;98408.72;5264320;28;20607;-67
2022/04/25 10:31:28;;;;;;;19.05;15.68;;;;;;;17.11;46.96;98396.13;5261980;28;20063;-67
2022/04/25 10:34:18;;;;;;;18.65;15.63;;;;;;;17.11;47.78;98412.19;5264292;28;20044;-67
2022/04/25 10:37:34;;;;;;;18.73;15.75;;;;;;;17.92;45.66;98416.78;5264302;28;20052;-68
2022/04/25 10:44:10;;;;;;;18.30;16.02;;;;;;;17.47;47.72;98419.13;5263390;28;20117;-68
2022/04/25 10:47:03;;;;;;;22.98;17.25;;;;;;;18.04;45.69;98421.31;5249460;28;20058;-68
2022/04/25 10:49:55;;;;;;;20.87;16.87;;;;;;;17.63;47.08;98421.44;5261717;28;20152;-69
2022/04/25 10:52:56;;;;;;;20.73;17.05;;;;;;;17.75;47.39;98419.81;5263740;28;20359;-68
2022/04/25 10:55:46;;;;;;;22.95;17.50;;;;;;;17.53;46.08;98421.00;5263513;28;20062;-70
2022/04/25 10:58:36;;;;;;;22.45;17.48;;;;;;;17.60;47.01;98424.53;5264475;28;20045;-68
2022/04/25 11:01:31;;;;;;;22.83;17.33;;;;;;;17.49;46.42;98414.41;5262654;28;20086;-68
2022/04/25 11:04:21;;;;;;;;;;;;;;;17.53;45.47;98421.81;5261894;28;20055;-69
2022/04/25 11:07:22;;;;;;;20.17;16.75;;;;;;;17.29;46.16;98431.25;5262852;28;20306;-69
2022/04/25 11:10:42;;;;;;;21.17;17.33;;;;;;;17.33;46.06;98437.84;5264629;28;20101;-68
2022/04/25 11:13:35;;;;;;;22.30;17.45;;;;;;;16.72;47.07;98447.59;5267461;28;20124;-70
2022/04/25 11:16:26;;;;;;;22.63;17.37;;;;;;;17.27;49.33;98437.81;5267887;28;20083;-68
2022/04/25 11:19:22;;;;;;;25.13;18.33;;;;;;;17.45;49.53;98451.50;5267312;28;20055;-69
2022/04/25 11:22:47;;;;;;;22.38;18.30;;;;;;;17.65;48.25;98446.19;5267788;28;20145;-69
2022/04/25 11:25:39;;;;;;;23.13;17.63;;;;;;;16.52;50.00;98444.78;5266250;28;20122;-69
2022/04/25 11:28:32;;;;;;;21.17;16.90;;;;;;;16.77;48.57;98446.03;5265445;28;20075;-69
2022/04/25 11:31:27;;;;;;;23.40;18.55;;;;;;;17.17;50.35;98450.75;5266798;28;20197;-69
2022/04/25 11:34:22;;;;;;;23.92;18.88;;;;;;;17.06;49.83;98436.09;5265733;28;20196;-70
2022/04/25 11:37:11;;;;;;;24.60;18.98;;;;;;;17.20;51.51;98424.41;5265231;28;20046;-70
2022/04/25 11:40:07;;;;;;;25.50;19.27;;;;;;;17.48;52.35;98450.25;5266687;28;20051;-70
2022/04/25 11:42:59;;;;;;;22.38;18.13;;;;;;;17.53;50.50;98453.16;5265937;28;20196;-74
2022/04/25 11:45:49;;;;;;;23.45;19.40;;;;;;;17.33;49.52;98459.28;5264855;28;20055;-72
2022/04/25 11:48:40;;;;;;;23.08;19.38;;;;;;;16.94;50.20;98467.13;5266220;28;20418;-74
2022/04/25 11:51:32;;;;;;;23.48;18.33;;;;;;;16.97;48.48;98459.53;5266943;28;20051;-74
2022/04/25 11:54:23;;;;;;;23.50;19.27;;;;;;;17.21;51.63;98466.22;5266423;28;20520;-68
2022/04/25 11:57:12;;;;;;;25.65;19.17;;;;;;;17.24;50.13;98462.31;5245972;28;20063;-71
2022/04/25 12:00:21;;;;;;;26.15;20.23;;;;;;;17.59;51.17;98468.44;5246540;28;20056;-70
2022/04/25 12:03:19;;;;;;;23.42;16.92;;;;;;;17.03;50.42;98468.63;5259785;28;20134;-70
2022/04/25 12:06:12;;;;;;;21.77;17.75;;;;;;;16.89;52.20;98473.91;5266935;28;20062;-70
2022/04/25 12:15:40;;;;;;;27.70;21.67;;;;;;;16.64;53.63;98462.78;5265677;28;20074;-69
2022/04/25 12:18:32;;;;;;;22.80;18.15;;;;;;;16.78;51.43;98471.75;5265407;28;20052;-69
2022/04/25 12:21:25;;;;;;;16.60;13.95;;;;;;;16.52;53.12;98469.69;5263941;28;20570;-69
2022/04/25 12:24:17;;;;;;;20.98;16.77;;;;;;;16.55;52.61;98466.63;5265662;28;20056;-68
2022/04/25 12:27:11;;;;;;;27.27;18.60;;;;;;;16.09;52.43;98443.03;5266028;28;20052;-68
2022/04/25 12:30:08;;;;;;;;;;;;;;;16.74;53.19;98465.13;5267288;28;20059;-71
2022/04/25 12:33:09;;;;;;;23.95;18.23;;;;;;;16.92;53.36;98470.00;5241730;28;19928;-71
2022/04/25 12:36:18;;;;;;;26.20;16.67;;;;;;;16.96;52.94;98473.13;5243023;28;20460;-69
2022/04/25 12:39:14;;;;;;;21.00;16.40;;;;;;;16.34;54.25;98474.72;5245651;28;20156;-68
2022/04/25 12:42:06;;;;;;;23.15;17.92;;;;;;;16.70;55.14;98468.41;5264480;28;20152;-68
2022/04/25 12:44:59;;;;;;;22.13;17.17;;;;;;;16.30;53.46;98463.56;5263452;28;20066;-68
2022/04/25 12:47:58;;;;;;;23.00;19.57;;;;;;;16.31;53.95;98438.47;5265226;28;20047;-68
2022/04/25 12:50:48;;;;;;;23.33;19.20;;;;;;;16.48;54.81;98483.66;5265065;28;20048;-67
2022/04/25 12:53:40;;;;;;;24.33;19.83;;;;;;;16.47;55.17;98484.69;5263681;28;20044;-68
2022/04/25 12:56:33;;;;;;;23.58;18.20;;;;;;;16.39;53.21;98481.16;5266355;28;20040;-68
2022/04/25 12:59:25;;;;;;;23.13;18.05;;;;;;;16.33;55.16;98467.72;5291975;27;20413;-68
2022/04/25 13:02:17;;;;;;;21.20;17.55;;;;;;;16.38;53.08;98481.31;5262737;28;20048;-68
2022/04/25 13:05:12;;;;;;;20.65;17.33;;;;;;;16.33;52.92;98484.59;5264370;28;20080;-68
2022/04/25 13:08:03;;;;;;;22.13;18.65;;;;;;;16.33;54.23;98486.44;5263971;28;20109;-67
2022/04/25 13:10:53;;;;;;;22.98;18.90;;;;;;;16.43;53.66;98478.91;5265621;28;20119;-67
2022/04/25 13:13:44;;;;;;;26.20;18.90;;;;;;;16.37;53.11;98485.84;5265622;28;20048;-67
2022/04/25 13:16:34;;;;;;;24.38;17.33;;;;;;;16.30;54.03;98486.81;5265365;28;20052;-68
2022/04/25 13:19:24;;;;;;;20.30;16.70;;;;;;;16.26;53.63;98482.84;5265313;28;20464;-67
2022/04/25 13:22:14;;;;;;;19.85;15.70;;;;;;;16.36;52.78;98489.56;5265481;28;20567;-67
2022/04/25 13:25:06;;;;;;;30.48;22.23;;;;;;;16.50;52.55;98473.59;5265052;28;20080;-69
2022/04/25 13:27:56;;;;;;;19.55;14.05;;;;;;;16.72;50.21;98482.41;5265032;28;20090;-67
2022/04/25 13:30:46;;;;;;;20.77;15.25;;;;;;;16.64;52.61;98480.69;5264003;28;20075;-69
2022/04/25 13:33:36;;;;;;;18.60;14.98;;;;;;;16.73;51.89;98482.22;5262560;28;20054;-67
2022/04/25 13:36:26;;;;;;;19.98;15.50;;;;;;;16.85;49.56;98479.84;5263112;28;20527;-67
2022/04/25 13:39:16;;;;;;;17.98;14.75;;;;;;;16.81;50.16;98471.38;5292979;27;20059;-67
2022/04/25 13:42:08;;;;;;;19.73;15.60;;;;;;;17.18;48.81;98461.25;5265493;28;20056;-67
2022/04/25 13:44:59;;;;;;;17.52;13.90;;;;;;;16.90;49.86;98470.19;5264082;28;20058;-67
2022/04/25 13:47:49;;;;;;;16.13;12.85;;;;;;;17.05;50.92;98474.59;5262063;28;20436;-69
2022/04/25 13:50:39;;;;;;;17.85;13.20;;;;;;;17.60;50.94;98472.78;5263284;28;20052;-67
2022/04/25 13:53:29;;;;;;;14.93;12.23;;;;;;;17.59;47.14;98461.22;5262267;28;20183;-67